Sao Sebastiao, Brazil
Current Conditions -  °F | °C
As of 12:00 PM on Wednesday 28 Jan 2015 (Local Time) from SBSJ Reporting Station
Clear Clear  
Wind Chill: 86°   Ceiling: Unl
Heat Index: 89°   Visibility: 6mi
Dew Point: 68°   Wind: 2mph
Humidity: 55%   Direction: 330°NNW
Pressure: 30.06"   Gusts: NA
Location:  23.79°S, 45.41°W
Report Text: SBSJ 281400Z 33002KT CAVOK 30/20 Q1018
Loading
Personal Weather Stations






























Interactive Weather Map New forecast layout! Learn more

10-Day Weather Forecast

Advertisements
Track Severe Weather on mobile